sensor_id;sensor_type;location;lat;lon;timestamp;temperature;humidity
13642;DHT22;6894;52.196;9.904;2024-03-02T00:01:10;9.70;99.90
13642;DHT22;6894;52.196;9.904;2024-03-02T00:03:38;9.70;99.90
13642;DHT22;6894;52.196;9.904;2024-03-02T00:06:05;9.70;99.90
13642;DHT22;6894;52.196;9.904;2024-03-02T00:08:33;9.60;99.90
13642;DHT22;6894;52.196;9.904;2024-03-02T00:11:00;9.60;99.90
13642;DHT22;6894;52.196;9.904;2024-03-02T00:13:29;9.60;99.90
13642;DHT22;6894;52.196;9.904;2024-03-02T00:15:57;9.60;99.90
13642;DHT22;6894;52.196;9.904;2024-03-02T00:18:26;9.60;99.90
13642;DHT22;6894;52.196;9.904;2024-03-02T00:20:55;9.50;1.00
13642;DHT22;6894;52.196;9.904;2024-03-02T00:23:23;9.60;1.00
13642;DHT22;6894;52.196;9.904;2024-03-02T00:25:52;9.60;1.00
13642;DHT22;6894;52.196;9.904;2024-03-02T00:28:20;9.50;1.00
13642;DHT22;6894;52.196;9.904;2024-03-02T00:30:56;9.50;1.00
13642;DHT22;6894;52.196;9.904;2024-03-02T00:33:30;9.50;1.00
13642;DHT22;6894;52.196;9.904;2024-03-02T00:35:58;9.50;1.00
13642;DHT22;6894;52.196;9.904;2024-03-02T00:38:26;9.50;1.00
13642;DHT22;6894;52.196;9.904;2024-03-02T00:40:54;9.50;1.00
13642;DHT22;6894;52.196;9.904;2024-03-02T00:43:41;9.50;1.00
13642;DHT22;6894;52.196;9.904;2024-03-02T00:46:08;9.50;1.00
13642;DHT22;6894;52.196;9.904;2024-03-02T00:48:35;9.40;1.00
13642;DHT22;6894;52.196;9.904;2024-03-02T00:51:04;9.40;1.00
13642;DHT22;6894;52.196;9.904;2024-03-02T00:53:31;9.40;1.00
13642;DHT22;6894;52.196;9.904;2024-03-02T00:55:59;9.40;1.00
13642;DHT22;6894;52.196;9.904;2024-03-02T00:58:26;9.50;1.00
13642;DHT22;6894;52.196;9.904;2024-03-02T01:00:52;9.40;1.00
13642;DHT22;6894;52.196;9.904;2024-03-02T01:03:19;9.50;1.00
13642;DHT22;6894;52.196;9.904;2024-03-02T01:05:46;9.50;1.00
13642;DHT22;6894;52.196;9.904;2024-03-02T01:08:14;9.40;1.00
13642;DHT22;6894;52.196;9.904;2024-03-02T01:10:41;9.40;1.00
13642;DHT22;6894;52.196;9.904;2024-03-02T01:13:08;9.50;1.00
13642;DHT22;6894;52.196;9.904;2024-03-02T01:15:35;9.50;1.00
13642;DHT22;6894;52.196;9.904;2024-03-02T01:18:02;9.50;1.00
13642;DHT22;6894;52.196;9.904;2024-03-02T01:20:29;9.50;1.00
13642;DHT22;6894;52.196;9.904;2024-03-02T01:22:55;9.40;1.00
13642;DHT22;6894;52.196;9.904;2024-03-02T01:25:23;9.50;1.00
13642;DHT22;6894;52.196;9.904;2024-03-02T01:27:50;9.50;1.00
13642;DHT22;6894;52.196;9.904;2024-03-02T01:30:17;9.40;1.00
13642;DHT22;6894;52.196;9.904;2024-03-02T01:32:44;9.40;1.00
13642;DHT22;6894;52.196;9.904;2024-03-02T01:35:11;9.40;1.00
13642;DHT22;6894;52.196;9.904;2024-03-02T01:37:37;9.40;1.00
13642;DHT22;6894;52.196;9.904;2024-03-02T01:40:05;9.40;1.00
13642;DHT22;6894;52.196;9.904;2024-03-02T01:42:36;9.40;1.00
13642;DHT22;6894;52.196;9.904;2024-03-02T01:45:04;9.30;1.00
13642;DHT22;6894;52.196;9.904;2024-03-02T01:47:31;9.40;1.00
13642;DHT22;6894;52.196;9.904;2024-03-02T01:49:59;9.40;1.00
13642;DHT22;6894;52.196;9.904;2024-03-02T01:52:27;9.30;1.00
13642;DHT22;6894;52.196;9.904;2024-03-02T01:54:53;9.30;1.00
13642;DHT22;6894;52.196;9.904;2024-03-02T01:57:20;9.30;1.00
13642;DHT22;6894;52.196;9.904;2024-03-02T01:59:48;9.30;1.00
13642;DHT22;6894;52.196;9.904;2024-03-02T02:02:16;9.30;1.00
13642;DHT22;6894;52.196;9.904;2024-03-02T02:04:43;9.30;1.00
13642;DHT22;6894;52.196;9.904;2024-03-02T02:07:10;9.20;1.00
13642;DHT22;6894;52.196;9.904;2024-03-02T02:09:37;9.20;1.00
13642;DHT22;6894;52.196;9.904;2024-03-02T02:12:04;9.20;1.00
13642;DHT22;6894;52.196;9.904;2024-03-02T02:14:32;9.20;1.00
13642;DHT22;6894;52.196;9.904;2024-03-02T02:17:00;9.10;1.00
13642;DHT22;6894;52.196;9.904;2024-03-02T02:19:27;9.20;1.00
13642;DHT22;6894;52.196;9.904;2024-03-02T02:21:55;9.10;1.00
13642;DHT22;6894;52.196;9.904;2024-03-02T02:24:22;9.10;1.00
13642;DHT22;6894;52.196;9.904;2024-03-02T02:26:48;9.10;1.00
13642;DHT22;6894;52.196;9.904;2024-03-02T02:29:15;9.10;1.00
13642;DHT22;6894;52.196;9.904;2024-03-02T02:31:42;9.10;2.40
13642;DHT22;6894;52.196;9.904;2024-03-02T02:34:09;9.00;1.00
13642;DHT22;6894;52.196;9.904;2024-03-02T02:36:38;9.00;75.50
13642;DHT22;6894;52.196;9.904;2024-03-02T02:39:09;9.00;72.20
13642;DHT22;6894;52.196;9.904;2024-03-02T02:41:37;8.90;62.40
13642;DHT22;6894;52.196;9.904;2024-03-02T02:44:04;9.00;74.50
13642;DHT22;6894;52.196;9.904;2024-03-02T02:46:31;8.90;86.30
13642;DHT22;6894;52.196;9.904;2024-03-02T02:48:58;9.00;99.90
13642;DHT22;6894;52.196;9.904;2024-03-02T02:51:25;8.90;85.50
13642;DHT22;6894;52.196;9.904;2024-03-02T02:53:52;8.90;67.10
13642;DHT22;6894;52.196;9.904;2024-03-02T02:56:20;8.90;99.90
13642;DHT22;6894;52.196;9.904;2024-03-02T02:58:46;8.90;55.40
13642;DHT22;6894;52.196;9.904;2024-03-02T03:01:15;8.90;99.90
13642;DHT22;6894;52.196;9.904;2024-03-02T03:03:43;8.90;99.90
13642;DHT22;6894;52.196;9.904;2024-03-02T03:06:10;8.90;99.90
13642;DHT22;6894;52.196;9.904;2024-03-02T03:08:37;8.80;99.90
13642;DHT22;6894;52.196;9.904;2024-03-02T03:11:04;8.80;92.60
13642;DHT22;6894;52.196;9.904;2024-03-02T03:13:33;8.80;97.00
13642;DHT22;6894;52.196;9.904;2024-03-02T03:16:00;8.90;99.90
13642;DHT22;6894;52.196;9.904;2024-03-02T03:18:27;8.90;59.20
13642;DHT22;6894;52.196;9.904;2024-03-02T03:20:53;8.90;99.90
13642;DHT22;6894;52.196;9.904;2024-03-02T03:23:20;8.80;99.90
13642;DHT22;6894;52.196;9.904;2024-03-02T03:25:47;8.80;99.90
13642;DHT22;6894;52.196;9.904;2024-03-02T03:28:14;8.80;50.50
13642;DHT22;6894;52.196;9.904;2024-03-02T03:30:42;8.80;90.50
13642;DHT22;6894;52.196;9.904;2024-03-02T03:33:08;8.80;99.90
13642;DHT22;6894;52.196;9.904;2024-03-02T03:35:36;8.80;56.30
13642;DHT22;6894;52.196;9.904;2024-03-02T03:38:04;8.80;1.00
13642;DHT22;6894;52.196;9.904;2024-03-02T03:40:30;8.80;1.00
13642;DHT22;6894;52.196;9.904;2024-03-02T03:42:57;8.80;1.00
13642;DHT22;6894;52.196;9.904;2024-03-02T03:45:25;9.30;1.00
13642;DHT22;6894;52.196;9.904;2024-03-02T03:47:54;8.80;1.00
13642;DHT22;6894;52.196;9.904;2024-03-02T03:50:21;8.90;1.00
13642;DHT22;6894;52.196;9.904;2024-03-02T03:52:47;8.80;1.00
13642;DHT22;6894;52.196;9.904;2024-03-02T03:55:14;8.80;1.00
13642;DHT22;6894;52.196;9.904;2024-03-02T03:57:41;8.80;1.00
13642;DHT22;6894;52.196;9.904;2024-03-02T04:00:08;8.80;1.00
13642;DHT22;6894;52.196;9.904;2024-03-02T04:02:36;8.80;1.00
13642;DHT22;6894;52.196;9.904;2024-03-02T04:05:05;8.70;1.00
13642;DHT22;6894;52.196;9.904;2024-03-02T04:07:35;8.70;1.00
13642;DHT22;6894;52.196;9.904;2024-03-02T04:10:07;8.70;1.00
13642;DHT22;6894;52.196;9.904;2024-03-02T04:12:34;8.60;1.00
13642;DHT22;6894;52.196;9.904;2024-03-02T04:15:01;8.60;1.00
13642;DHT22;6894;52.196;9.904;2024-03-02T04:17:30;8.60;22.20
13642;DHT22;6894;52.196;9.904;2024-03-02T04:19:57;8.60;67.70
13642;DHT22;6894;52.196;9.904;2024-03-02T04:22:25;8.60;49.80
13642;DHT22;6894;52.196;9.904;2024-03-02T04:24:52;8.70;99.90
13642;DHT22;6894;52.196;9.904;2024-03-02T04:27:19;8.60;99.90
13642;DHT22;6894;52.196;9.904;2024-03-02T04:29:46;8.60;99.90
13642;DHT22;6894;52.196;9.904;2024-03-02T04:32:13;8.60;99.90
13642;DHT22;6894;52.196;9.904;2024-03-02T04:34:39;8.50;99.90
13642;DHT22;6894;52.196;9.904;2024-03-02T04:37:06;8.60;99.90
13642;DHT22;6894;52.196;9.904;2024-03-02T04:39:35;8.60;99.90
13642;DHT22;6894;52.196;9.904;2024-03-02T04:42:02;8.60;99.90
13642;DHT22;6894;52.196;9.904;2024-03-02T04:44:29;8.60;1.00
13642;DHT22;6894;52.196;9.904;2024-03-02T04:46:56;8.70;1.00
13642;DHT22;6894;52.196;9.904;2024-03-02T04:49:23;8.60;1.00
13642;DHT22;6894;52.196;9.904;2024-03-02T04:51:50;8.50;1.00
13642;DHT22;6894;52.196;9.904;2024-03-02T04:54:16;8.50;1.00
13642;DHT22;6894;52.196;9.904;2024-03-02T04:56:44;8.50;1.00
13642;DHT22;6894;52.196;9.904;2024-03-02T04:59:15;8.50;1.00
13642;DHT22;6894;52.196;9.904;2024-03-02T05:01:42;8.50;1.00
13642;DHT22;6894;52.196;9.904;2024-03-02T05:04:08;8.50;1.00
13642;DHT22;6894;52.196;9.904;2024-03-02T05:06:37;8.50;1.00
13642;DHT22;6894;52.196;9.904;2024-03-02T05:09:04;8.50;1.00
13642;DHT22;6894;52.196;9.904;2024-03-02T05:11:31;8.50;1.00
13642;DHT22;6894;52.196;9.904;2024-03-02T05:14:17;8.40;1.00
13642;DHT22;6894;52.196;9.904;2024-03-02T05:16:44;8.40;1.00
13642;DHT22;6894;52.196;9.904;2024-03-02T05:19:10;8.30;1.00
13642;DHT22;6894;52.196;9.904;2024-03-02T05:21:37;8.30;1.00
13642;DHT22;6894;52.196;9.904;2024-03-02T05:24:04;8.40;1.00
13642;DHT22;6894;52.196;9.904;2024-03-02T05:26:31;8.40;1.00
13642;DHT22;6894;52.196;9.904;2024-03-02T05:28:58;8.40;1.00
13642;DHT22;6894;52.196;9.904;2024-03-02T05:31:26;8.30;1.00
13642;DHT22;6894;52.196;9.904;2024-03-02T05:33:53;8.30;1.00
13642;DHT22;6894;52.196;9.904;2024-03-02T05:36:19;8.30;1.00
13642;DHT22;6894;52.196;9.904;2024-03-02T05:38:47;8.30;1.00
13642;DHT22;6894;52.196;9.904;2024-03-02T05:41:13;8.20;74.60
13642;DHT22;6894;52.196;9.904;2024-03-02T05:43:40;8.30;1.00
13642;DHT22;6894;52.196;9.904;2024-03-02T05:46:07;8.10;53.10
13642;DHT22;6894;52.196;9.904;2024-03-02T05:48:35;8.10;99.90
13642;DHT22;6894;52.196;9.904;2024-03-02T05:51:02;8.10;99.90
13642;DHT22;6894;52.196;9.904;2024-03-02T05:53:29;8.10;42.30
13642;DHT22;6894;52.196;9.904;2024-03-02T05:55:56;7.90;1.00
13642;DHT22;6894;52.196;9.904;2024-03-02T05:58:22;7.80;1.00
13642;DHT22;6894;52.196;9.904;2024-03-02T06:01:03;7.70;1.00
13642;DHT22;6894;52.196;9.904;2024-03-02T06:03:30;7.50;1.00
13642;DHT22;6894;52.196;9.904;2024-03-02T06:05:58;7.60;99.90
13642;DHT22;6894;52.196;9.904;2024-03-02T06:08:25;7.50;99.90
13642;DHT22;6894;52.196;9.904;2024-03-02T06:10:52;7.50;1.00
13642;DHT22;6894;52.196;9.904;2024-03-02T06:13:19;7.60;1.00
13642;DHT22;6894;52.196;9.904;2024-03-02T06:15:45;7.60;1.00
13642;DHT22;6894;52.196;9.904;2024-03-02T06:18:12;7.60;1.00
13642;DHT22;6894;52.196;9.904;2024-03-02T06:20:39;7.60;1.00
13642;DHT22;6894;52.196;9.904;2024-03-02T06:23:07;7.60;1.00
13642;DHT22;6894;52.196;9.904;2024-03-02T06:25:34;7.60;1.00
13642;DHT22;6894;52.196;9.904;2024-03-02T06:28:00;8.30;1.00
13642;DHT22;6894;52.196;9.904;2024-03-02T06:30:28;7.80;1.00
13642;DHT22;6894;52.196;9.904;2024-03-02T06:32:55;7.90;1.00
13642;DHT22;6894;52.196;9.904;2024-03-02T06:35:21;8.00;1.00
13642;DHT22;6894;52.196;9.904;2024-03-02T06:37:48;8.10;1.00
13642;DHT22;6894;52.196;9.904;2024-03-02T06:40:16;8.10;1.00
13642;DHT22;6894;52.196;9.904;2024-03-02T06:42:43;8.20;1.00
13642;DHT22;6894;52.196;9.904;2024-03-02T06:45:10;8.30;1.00
13642;DHT22;6894;52.196;9.904;2024-03-02T06:47:37;8.40;1.00
13642;DHT22;6894;52.196;9.904;2024-03-02T06:50:04;8.50;1.00
13642;DHT22;6894;52.196;9.904;2024-03-02T06:52:32;8.50;1.00
13642;DHT22;6894;52.196;9.904;2024-03-02T06:54:59;8.50;1.00
13642;DHT22;6894;52.196;9.904;2024-03-02T06:57:27;8.60;1.00
13642;DHT22;6894;52.196;9.904;2024-03-02T06:59:54;8.60;99.90
13642;DHT22;6894;52.196;9.904;2024-03-02T07:02:24;8.70;99.90
13642;DHT22;6894;52.196;9.904;2024-03-02T07:04:52;8.70;99.90
13642;DHT22;6894;52.196;9.904;2024-03-02T07:07:19;8.70;99.90
13642;DHT22;6894;52.196;9.904;2024-03-02T07:09:46;8.80;99.90
13642;DHT22;6894;52.196;9.904;2024-03-02T07:12:13;8.90;99.90
13642;DHT22;6894;52.196;9.904;2024-03-02T07:14:41;8.90;99.90
13642;DHT22;6894;52.196;9.904;2024-03-02T07:17:25;8.90;99.90
13642;DHT22;6894;52.196;9.904;2024-03-02T07:19:52;9.00;63.90
13642;DHT22;6894;52.196;9.904;2024-03-02T07:22:19;9.10;1.00
13642;DHT22;6894;52.196;9.904;2024-03-02T07:24:46;9.10;1.00
13642;DHT22;6894;52.196;9.904;2024-03-02T07:27:13;9.20;1.00
13642;DHT22;6894;52.196;9.904;2024-03-02T07:29:41;9.20;1.00
13642;DHT22;6894;52.196;9.904;2024-03-02T07:32:09;9.20;1.00
13642;DHT22;6894;52.196;9.904;2024-03-02T07:34:36;9.40;1.00
13642;DHT22;6894;52.196;9.904;2024-03-02T07:37:04;9.30;1.00
13642;DHT22;6894;52.196;9.904;2024-03-02T07:39:31;9.40;1.00
13642;DHT22;6894;52.196;9.904;2024-03-02T07:41:58;9.50;1.00
13642;DHT22;6894;52.196;9.904;2024-03-02T07:44:25;9.60;1.00
13642;DHT22;6894;52.196;9.904;2024-03-02T07:46:54;9.70;1.00
13642;DHT22;6894;52.196;9.904;2024-03-02T07:49:20;9.80;1.00
13642;DHT22;6894;52.196;9.904;2024-03-02T07:51:47;9.90;1.00
13642;DHT22;6894;52.196;9.904;2024-03-02T07:54:14;9.90;99.90
13642;DHT22;6894;52.196;9.904;2024-03-02T07:56:41;10.00;99.90
13642;DHT22;6894;52.196;9.904;2024-03-02T07:59:08;10.10;99.90
13642;DHT22;6894;52.196;9.904;2024-03-02T08:01:35;10.30;99.90
13642;DHT22;6894;52.196;9.904;2024-03-02T08:04:03;10.30;1.00
13642;DHT22;6894;52.196;9.904;2024-03-02T08:06:30;10.30;1.00
13642;DHT22;6894;52.196;9.904;2024-03-02T08:08:58;10.30;1.00
13642;DHT22;6894;52.196;9.904;2024-03-02T08:11:25;10.30;1.00
13642;DHT22;6894;52.196;9.904;2024-03-02T08:13:53;10.30;1.00
13642;DHT22;6894;52.196;9.904;2024-03-02T08:16:21;10.40;1.00
13642;DHT22;6894;52.196;9.904;2024-03-02T08:18:49;10.50;1.00
13642;DHT22;6894;52.196;9.904;2024-03-02T08:21:17;10.60;1.00
13642;DHT22;6894;52.196;9.904;2024-03-02T08:23:44;10.60;99.90
13642;DHT22;6894;52.196;9.904;2024-03-02T08:26:12;10.70;99.90
13642;DHT22;6894;52.196;9.904;2024-03-02T08:28:39;10.80;99.90
13642;DHT22;6894;52.196;9.904;2024-03-02T08:31:06;10.90;88.10
13642;DHT22;6894;52.196;9.904;2024-03-02T08:33:32;10.80;19.90
13642;DHT22;6894;52.196;9.904;2024-03-02T08:36:00;10.80;1.00
13642;DHT22;6894;52.196;9.904;2024-03-02T08:38:28;10.90;1.00
13642;DHT22;6894;52.196;9.904;2024-03-02T08:40:55;10.90;1.00
13642;DHT22;6894;52.196;9.904;2024-03-02T08:43:21;11.00;1.00
13642;DHT22;6894;52.196;9.904;2024-03-02T08:45:49;11.30;1.00
13642;DHT22;6894;52.196;9.904;2024-03-02T08:48:16;11.50;1.00
13642;DHT22;6894;52.196;9.904;2024-03-02T08:50:43;11.70;99.90
13642;DHT22;6894;52.196;9.904;2024-03-02T08:53:10;11.70;99.90
13642;DHT22;6894;52.196;9.904;2024-03-02T08:55:38;11.90;49.70
13642;DHT22;6894;52.196;9.904;2024-03-02T08:58:06;11.90;17.20
13642;DHT22;6894;52.196;9.904;2024-03-02T09:00:33;12.00;1.00
13642;DHT22;6894;52.196;9.904;2024-03-02T09:03:00;12.10;1.00
13642;DHT22;6894;52.196;9.904;2024-03-02T09:05:27;12.10;1.00
13642;DHT22;6894;52.196;9.904;2024-03-02T09:07:53;12.20;1.00
13642;DHT22;6894;52.196;9.904;2024-03-02T09:10:20;12.30;1.00
13642;DHT22;6894;52.196;9.904;2024-03-02T09:12:49;12.50;1.00
13642;DHT22;6894;52.196;9.904;2024-03-02T09:15:16;12.60;1.00
13642;DHT22;6894;52.196;9.904;2024-03-02T09:17:42;12.50;1.00
13642;DHT22;6894;52.196;9.904;2024-03-02T09:20:11;12.50;1.00
13642;DHT22;6894;52.196;9.904;2024-03-02T09:22:39;12.30;1.00
13642;DHT22;6894;52.196;9.904;2024-03-02T09:25:07;12.40;1.00
13642;DHT22;6894;52.196;9.904;2024-03-02T09:27:36;12.30;1.00
13642;DHT22;6894;52.196;9.904;2024-03-02T09:30:08;12.40;1.00
13642;DHT22;6894;52.196;9.904;2024-03-02T09:32:36;12.70;1.00
13642;DHT22;6894;52.196;9.904;2024-03-02T09:35:03;12.50;1.00
13642;DHT22;6894;52.196;9.904;2024-03-02T09:37:30;12.50;1.00
13642;DHT22;6894;52.196;9.904;2024-03-02T09:39:57;12.60;1.00
13642;DHT22;6894;52.196;9.904;2024-03-02T09:42:24;12.60;1.00
13642;DHT22;6894;52.196;9.904;2024-03-02T09:44:52;12.50;1.00
13642;DHT22;6894;52.196;9.904;2024-03-02T09:47:20;12.60;1.00
13642;DHT22;6894;52.196;9.904;2024-03-02T09:49:47;12.60;1.00
13642;DHT22;6894;52.196;9.904;2024-03-02T09:52:14;12.70;1.00
13642;DHT22;6894;52.196;9.904;2024-03-02T09:54:41;12.60;1.00
13642;DHT22;6894;52.196;9.904;2024-03-02T09:57:08;12.60;1.00
13642;DHT22;6894;52.196;9.904;2024-03-02T09:59:36;12.70;1.00
13642;DHT22;6894;52.196;9.904;2024-03-02T10:02:03;12.70;1.00
13642;DHT22;6894;52.196;9.904;2024-03-02T10:04:34;12.80;1.00
13642;DHT22;6894;52.196;9.904;2024-03-02T10:07:12;12.70;1.00
13642;DHT22;6894;52.196;9.904;2024-03-02T10:09:40;12.80;1.00
13642;DHT22;6894;52.196;9.904;2024-03-02T10:12:08;12.80;1.00
13642;DHT22;6894;52.196;9.904;2024-03-02T10:14:35;12.90;1.00
13642;DHT22;6894;52.196;9.904;2024-03-02T10:17:03;12.70;1.00
13642;DHT22;6894;52.196;9.904;2024-03-02T10:19:30;12.70;1.00
13642;DHT22;6894;52.196;9.904;2024-03-02T10:22:00;12.70;1.00
13642;DHT22;6894;52.196;9.904;2024-03-02T10:24:34;12.70;1.00
13642;DHT22;6894;52.196;9.904;2024-03-02T10:27:02;12.90;1.00
13642;DHT22;6894;52.196;9.904;2024-03-02T10:29:30;13.10;1.00
13642;DHT22;6894;52.196;9.904;2024-03-02T10:31:57;13.00;1.00
13642;DHT22;6894;52.196;9.904;2024-03-02T10:34:24;13.00;1.00
13642;DHT22;6894;52.196;9.904;2024-03-02T10:36:51;13.10;1.00
13642;DHT22;6894;52.196;9.904;2024-03-02T10:39:19;13.20;1.00
13642;DHT22;6894;52.196;9.904;2024-03-02T10:41:49;13.20;1.00
13642;DHT22;6894;52.196;9.904;2024-03-02T10:44:19;13.30;1.00
13642;DHT22;6894;52.196;9.904;2024-03-02T10:46:47;13.20;1.00
13642;DHT22;6894;52.196;9.904;2024-03-02T10:49:16;13.20;1.00
13642;DHT22;6894;52.196;9.904;2024-03-02T10:51:43;13.30;1.00
13642;DHT22;6894;52.196;9.904;2024-03-02T10:54:10;13.30;1.00
13642;DHT22;6894;52.196;9.904;2024-03-02T10:56:40;13.40;1.00
13642;DHT22;6894;52.196;9.904;2024-03-02T10:59:16;13.70;1.00
13642;DHT22;6894;52.196;9.904;2024-03-02T11:01:47;13.80;1.00
13642;DHT22;6894;52.196;9.904;2024-03-02T11:04:16;13.90;1.00
13642;DHT22;6894;52.196;9.904;2024-03-02T11:06:48;13.70;1.00
13642;DHT22;6894;52.196;9.904;2024-03-02T11:09:17;13.70;1.00
13642;DHT22;6894;52.196;9.904;2024-03-02T11:11:54;13.70;1.00
13642;DHT22;6894;52.196;9.904;2024-03-02T11:14:24;14.00;1.00
13642;DHT22;6894;52.196;9.904;2024-03-02T11:16:52;14.10;1.00
13642;DHT22;6894;52.196;9.904;2024-03-02T11:19:19;14.30;1.00
13642;DHT22;6894;52.196;9.904;2024-03-02T11:21:47;14.30;1.00
13642;DHT22;6894;52.196;9.904;2024-03-02T11:24:31;14.50;1.00
13642;DHT22;6894;52.196;9.904;2024-03-02T11:27:03;14.60;1.00
13642;DHT22;6894;52.196;9.904;2024-03-02T11:29:46;14.80;1.00
13642;DHT22;6894;52.196;9.904;2024-03-02T11:32:17;14.90;1.00
13642;DHT22;6894;52.196;9.904;2024-03-02T11:34:46;14.70;1.00
13642;DHT22;6894;52.196;9.904;2024-03-02T11:37:13;14.40;1.00
13642;DHT22;6894;52.196;9.904;2024-03-02T11:39:41;14.50;1.00
13642;DHT22;6894;52.196;9.904;2024-03-02T11:42:11;14.40;1.00
13642;DHT22;6894;52.196;9.904;2024-03-02T11:44:40;14.50;1.00
13642;DHT22;6894;52.196;9.904;2024-03-02T11:47:08;14.50;1.00
13642;DHT22;6894;52.196;9.904;2024-03-02T11:49:37;14.40;1.00
13642;DHT22;6894;52.196;9.904;2024-03-02T11:52:05;14.40;1.00
13642;DHT22;6894;52.196;9.904;2024-03-02T11:54:33;14.40;1.00
13642;DHT22;6894;52.196;9.904;2024-03-02T11:57:02;14.30;1.00
13642;DHT22;6894;52.196;9.904;2024-03-02T11:59:30;14.20;1.00
13642;DHT22;6894;52.196;9.904;2024-03-02T12:01:58;14.30;1.00
13642;DHT22;6894;52.196;9.904;2024-03-02T12:04:25;14.00;1.00
13642;DHT22;6894;52.196;9.904;2024-03-02T12:06:54;13.90;1.00
13642;DHT22;6894;52.196;9.904;2024-03-02T12:09:22;13.90;1.00
13642;DHT22;6894;52.196;9.904;2024-03-02T12:12:01;13.80;1.00
13642;DHT22;6894;52.196;9.904;2024-03-02T12:14:30;13.80;1.00
13642;DHT22;6894;52.196;9.904;2024-03-02T12:16:57;13.70;1.00
13642;DHT22;6894;52.196;9.904;2024-03-02T12:19:25;13.70;1.00
13642;DHT22;6894;52.196;9.904;2024-03-02T12:21:52;13.60;1.00
13642;DHT22;6894;52.196;9.904;2024-03-02T12:24:19;13.60;1.00
13642;DHT22;6894;52.196;9.904;2024-03-02T12:26:47;13.70;1.00
13642;DHT22;6894;52.196;9.904;2024-03-02T12:29:14;13.80;1.00
13642;DHT22;6894;52.196;9.904;2024-03-02T12:31:43;14.20;1.00
13642;DHT22;6894;52.196;9.904;2024-03-02T12:34:12;14.30;1.00
13642;DHT22;6894;52.196;9.904;2024-03-02T12:36:39;14.40;1.00
13642;DHT22;6894;52.196;9.904;2024-03-02T12:39:07;14.50;1.00
13642;DHT22;6894;52.196;9.904;2024-03-02T12:41:36;14.80;1.00
13642;DHT22;6894;52.196;9.904;2024-03-02T12:44:03;14.80;1.00
13642;DHT22;6894;52.196;9.904;2024-03-02T12:46:30;14.80;1.00
13642;DHT22;6894;52.196;9.904;2024-03-02T12:48:58;15.10;1.00
13642;DHT22;6894;52.196;9.904;2024-03-02T12:51:27;15.30;1.00
13642;DHT22;6894;52.196;9.904;2024-03-02T12:53:54;15.40;1.00
13642;DHT22;6894;52.196;9.904;2024-03-02T12:56:21;15.40;1.00
13642;DHT22;6894;52.196;9.904;2024-03-02T12:58:53;15.40;1.00
13642;DHT22;6894;52.196;9.904;2024-03-02T13:01:20;14.40;1.00
13642;DHT22;6894;52.196;9.904;2024-03-02T13:03:49;15.30;1.00
13642;DHT22;6894;52.196;9.904;2024-03-02T13:06:18;15.30;1.00
13642;DHT22;6894;52.196;9.904;2024-03-02T13:08:45;15.50;1.00
13642;DHT22;6894;52.196;9.904;2024-03-02T13:11:13;15.50;1.00
13642;DHT22;6894;52.196;9.904;2024-03-02T13:13:40;15.60;1.00
13642;DHT22;6894;52.196;9.904;2024-03-02T13:16:08;15.60;1.00
13642;DHT22;6894;52.196;9.904;2024-03-02T13:18:36;15.80;1.00
13642;DHT22;6894;52.196;9.904;2024-03-02T13:21:03;15.90;1.00
13642;DHT22;6894;52.196;9.904;2024-03-02T13:23:31;16.00;1.00
13642;DHT22;6894;52.196;9.904;2024-03-02T13:25:58;16.10;1.00
13642;DHT22;6894;52.196;9.904;2024-03-02T13:28:25;16.10;1.00
13642;DHT22;6894;52.196;9.904;2024-03-02T13:30:52;16.10;1.00
13642;DHT22;6894;52.196;9.904;2024-03-02T13:33:19;16.10;1.00
13642;DHT22;6894;52.196;9.904;2024-03-02T13:35:48;16.20;1.00
13642;DHT22;6894;52.196;9.904;2024-03-02T13:38:15;16.20;1.00
13642;DHT22;6894;52.196;9.904;2024-03-02T13:40:43;16.00;1.00
13642;DHT22;6894;52.196;9.904;2024-03-02T13:43:10;15.80;1.00
13642;DHT22;6894;52.196;9.904;2024-03-02T13:45:37;15.80;1.00
13642;DHT22;6894;52.196;9.904;2024-03-02T13:48:05;15.70;1.00
13642;DHT22;6894;52.196;9.904;2024-03-02T13:50:32;15.80;1.00
13642;DHT22;6894;52.196;9.904;2024-03-02T13:52:59;15.80;1.00
13642;DHT22;6894;52.196;9.904;2024-03-02T13:55:25;15.80;1.00
13642;DHT22;6894;52.196;9.904;2024-03-02T13:57:54;16.00;1.00
13642;DHT22;6894;52.196;9.904;2024-03-02T14:00:21;16.10;1.00
13642;DHT22;6894;52.196;9.904;2024-03-02T14:02:48;16.10;1.00
13642;DHT22;6894;52.196;9.904;2024-03-02T14:05:15;16.00;1.00
13642;DHT22;6894;52.196;9.904;2024-03-02T14:07:42;16.00;1.00
13642;DHT22;6894;52.196;9.904;2024-03-02T14:10:09;16.20;1.00
13642;DHT22;6894;52.196;9.904;2024-03-02T14:12:36;16.10;1.00
13642;DHT22;6894;52.196;9.904;2024-03-02T14:15:06;15.80;1.00
13642;DHT22;6894;52.196;9.904;2024-03-02T14:17:33;15.70;1.00
13642;DHT22;6894;52.196;9.904;2024-03-02T14:20:00;15.70;1.00
13642;DHT22;6894;52.196;9.904;2024-03-02T14:22:27;15.60;1.00
13642;DHT22;6894;52.196;9.904;2024-03-02T14:24:53;15.50;1.00
13642;DHT22;6894;52.196;9.904;2024-03-02T14:27:20;15.50;1.00
13642;DHT22;6894;52.196;9.904;2024-03-02T14:29:47;15.40;1.00
13642;DHT22;6894;52.196;9.904;2024-03-02T14:32:15;15.40;1.00
13642;DHT22;6894;52.196;9.904;2024-03-02T14:34:42;15.50;1.00
13642;DHT22;6894;52.196;9.904;2024-03-02T14:37:09;15.40;1.00
13642;DHT22;6894;52.196;9.904;2024-03-02T14:39:36;15.30;1.00
13642;DHT22;6894;52.196;9.904;2024-03-02T14:42:03;15.20;1.00
13642;DHT22;6894;52.196;9.904;2024-03-02T14:44:30;15.20;1.00
13642;DHT22;6894;52.196;9.904;2024-03-02T14:46:57;15.20;1.00
13642;DHT22;6894;52.196;9.904;2024-03-02T14:49:25;15.20;1.00
13642;DHT22;6894;52.196;9.904;2024-03-02T14:51:52;15.20;1.00
13642;DHT22;6894;52.196;9.904;2024-03-02T14:54:19;15.20;1.00
13642;DHT22;6894;52.196;9.904;2024-03-02T14:56:46;15.30;1.00
13642;DHT22;6894;52.196;9.904;2024-03-02T14:59:13;15.20;1.00
13642;DHT22;6894;52.196;9.904;2024-03-02T15:01:40;15.30;1.00
13642;DHT22;6894;52.196;9.904;2024-03-02T15:04:07;15.30;1.00
13642;DHT22;6894;52.196;9.904;2024-03-02T15:06:35;15.20;1.00
13642;DHT22;6894;52.196;9.904;2024-03-02T15:09:02;15.10;1.00
13642;DHT22;6894;52.196;9.904;2024-03-02T15:11:28;15.00;1.00
13642;DHT22;6894;52.196;9.904;2024-03-02T15:13:55;15.00;1.00
13642;DHT22;6894;52.196;9.904;2024-03-02T15:16:22;14.90;1.00
13642;DHT22;6894;52.196;9.904;2024-03-02T15:18:49;14.80;1.00
13642;DHT22;6894;52.196;9.904;2024-03-02T15:21:16;14.80;1.00
13642;DHT22;6894;52.196;9.904;2024-03-02T15:23:46;14.60;1.00
13642;DHT22;6894;52.196;9.904;2024-03-02T15:26:12;14.60;1.00
13642;DHT22;6894;52.196;9.904;2024-03-02T15:28:39;14.50;1.00
13642;DHT22;6894;52.196;9.904;2024-03-02T15:31:06;14.50;1.00
13642;DHT22;6894;52.196;9.904;2024-03-02T15:33:33;14.60;1.00
13642;DHT22;6894;52.196;9.904;2024-03-02T15:36:00;14.60;1.00
13642;DHT22;6894;52.196;9.904;2024-03-02T15:38:27;14.60;1.00
13642;DHT22;6894;52.196;9.904;2024-03-02T15:40:55;14.60;1.00
13642;DHT22;6894;52.196;9.904;2024-03-02T15:43:21;14.60;1.00
13642;DHT22;6894;52.196;9.904;2024-03-02T15:45:49;14.50;1.00
13642;DHT22;6894;52.196;9.904;2024-03-02T15:48:16;14.60;1.00
13642;DHT22;6894;52.196;9.904;2024-03-02T15:50:43;14.50;1.00
13642;DHT22;6894;52.196;9.904;2024-03-02T15:53:10;14.40;1.00
13642;DHT22;6894;52.196;9.904;2024-03-02T15:55:36;14.40;1.00
13642;DHT22;6894;52.196;9.904;2024-03-02T15:58:05;14.30;1.00
13642;DHT22;6894;52.196;9.904;2024-03-02T16:00:31;14.30;1.00
13642;DHT22;6894;52.196;9.904;2024-03-02T16:02:58;14.40;1.00
13642;DHT22;6894;52.196;9.904;2024-03-02T16:05:25;14.40;1.00
13642;DHT22;6894;52.196;9.904;2024-03-02T16:07:52;14.30;1.00
13642;DHT22;6894;52.196;9.904;2024-03-02T16:10:19;14.20;1.00